Time;durP1;ratioP1;P1;durP2;ratioP2;P2;SDS_P1;SDS_P2;PMS_P1;PMS_P2;Temp;Humidity;BMP_temperature;BMP_pressure;BME280_temperature;BME280_humidity;BME280_pressure;Samples;Min_cycle;Max_cycle;Signal;HPM_P1;HPM_P2
2022/06/09 00:00:54;;;;;;;;;;;13.40;99.90;;;;;;4890977;29;20063;-57
2022/06/09 00:03:24;;;;;;;;;;;13.50;99.90;;;;;;4890379;29;20037;-56
2022/06/09 00:05:50;;;;;;;;;;;13.50;99.90;;;;;;4885129;29;19924;-57
2022/06/09 00:08:16;;;;;;;;;;;13.50;99.90;;;;;;4889451;29;20458;-57
2022/06/09 00:10:47;;;;;;;;;;;13.50;99.90;;;;;;4890670;29;19986;-57
2022/06/09 00:13:12;;;;;;;;;;;13.50;99.90;;;;;;4891718;29;19907;-57
2022/06/09 00:15:38;;;;;;;;;;;13.60;99.90;;;;;;4891247;29;19922;-56
2022/06/09 00:18:03;;;;;;;;;;;13.60;99.90;;;;;;4891815;29;19911;-57
2022/06/09 00:20:29;;;;;;;;;;;13.50;99.90;;;;;;4891250;29;19907;-57
2022/06/09 00:22:54;;;;;;;;;;;13.50;99.90;;;;;;4893763;29;20367;-57
2022/06/09 00:25:20;;;;;;;;;;;13.40;99.90;;;;;;4891065;29;20371;-56
2022/06/09 00:27:45;;;;;;;;;;;13.40;99.90;;;;;;4892784;29;19919;-57
2022/06/09 00:30:12;;;;;;;;;;;13.40;99.90;;;;;;4892392;29;20483;-57
2022/06/09 00:32:38;;;;;;;;;;;13.30;99.90;;;;;;4892904;29;20010;-56
2022/06/09 00:35:03;;;;;;;;;;;13.40;99.90;;;;;;4891177;29;20050;-57
2022/06/09 00:37:29;;;;;;;;;;;13.30;99.90;;;;;;4892360;29;20271;-57
2022/06/09 00:39:55;;;;;;;;;;;13.20;99.90;;;;;;4892796;29;20455;-57
2022/06/09 00:42:20;;;;;;;;;;;13.20;99.90;;;;;;4892091;29;19915;-57
2022/06/09 00:44:47;;;;;;;;;;;13.30;99.90;;;;;;4892624;29;19946;-57
2022/06/09 00:47:18;;;;;;;;;;;13.20;99.90;;;;;;4892163;29;20355;-58
2022/06/09 00:50:04;;;;;;;;;;;13.20;99.90;;;;;;4892560;29;19911;-57
2022/06/09 00:52:32;;;;;;;;;;;13.30;99.90;;;;;;4891851;29;19907;-57
2022/06/09 00:55:03;;;;;;;;;;;13.30;99.90;;;;;;4895237;29;19914;-56
2022/06/09 00:57:41;;;;;;;;;;;13.30;99.90;;;;;;4891367;29;20006;-57
2022/06/09 01:00:10;;;;;;;;;;;13.30;99.90;;;;;;4892099;29;19915;-56
2022/06/09 01:02:36;;;;;;;;;;;13.30;99.90;;;;;;4893667;29;19931;-56
2022/06/09 01:05:04;;;;;;;;;;;13.40;99.90;;;;;;4854158;29;1103514;-56
2022/06/09 01:07:32;;;;;;;;;;;13.40;99.90;;;;;;4889588;29;19963;-56
2022/06/09 01:09:58;;;;;;;;;;;13.40;99.90;;;;;;4893690;29;19975;-58
2022/06/09 01:12:28;;;;;;;;;;;13.50;99.90;;;;;;4892476;29;19915;-57
2022/06/09 01:14:55;;;;;;;;;;;13.50;99.90;;;;;;4893209;29;20406;-57
2022/06/09 01:17:29;;;;;;;;;;;13.50;99.90;;;;;;4893944;29;19916;-57
2022/06/09 01:19:59;;;;;;;;;;;13.50;99.90;;;;;;4890275;29;20417;-57
2022/06/09 01:22:34;;;;;;;;;;;13.40;99.90;;;;;;4892709;29;19919;-57
2022/06/09 01:25:14;;;;;;;;;;;13.40;99.90;;;;;;4893011;29;19911;-57
2022/06/09 01:27:55;;;;;;;;;;;13.40;99.90;;;;;;4892930;29;19911;-57
2022/06/09 01:30:22;;;;;;;;;;;13.30;99.90;;;;;;4889506;29;19915;-57
2022/06/09 01:32:56;;;;;;;;;;;13.30;99.90;;;;;;4894797;29;19934;-57
2022/06/09 01:35:31;;;;;;;;;;;13.30;99.90;;;;;;4893258;29;19915;-57
2022/06/09 01:37:58;;;;;;;;;;;13.20;99.90;;;;;;4893083;29;19911;-57
2022/06/09 01:40:23;;;;;;;;;;;13.30;99.90;;;;;;4892385;29;19911;-57
2022/06/09 01:42:50;;;;;;;;;;;13.30;99.90;;;;;;4893566;29;20419;-57
2022/06/09 01:45:27;;;;;;;;;;;13.30;99.90;;;;;;4892305;29;20645;-56
2022/06/09 01:48:02;;;;;;;;;;;13.40;99.90;;;;;;4889699;29;19916;-57
2022/06/09 01:50:37;;;;;;;;;;;13.40;99.90;;;;;;4892152;29;19946;-56
2022/06/09 01:53:05;;;;;;;;;;;13.50;99.90;;;;;;4892759;29;19911;-57
2022/06/09 01:55:32;;;;;;;;;;;13.50;99.90;;;;;;4892108;29;20133;-57
2022/06/09 01:58:00;;;;;;;;;;;13.50;99.90;;;;;;4892415;29;19911;-57
2022/06/09 02:00:26;;;;;;;;;;;13.50;99.90;;;;;;4892220;29;19959;-57
2022/06/09 02:02:52;;;;;;;;;;;13.60;99.90;;;;;;4892203;29;19958;-57
2022/06/09 02:05:20;;;;;;;;;;;13.60;99.90;;;;;;4889981;29;19962;-57
2022/06/09 02:07:47;;;;;;;;;;;13.60;99.90;;;;;;4889124;29;19912;-57
2022/06/09 02:10:20;;;;;;;;;;;13.60;99.90;;;;;;4891664;29;19911;-56
2022/06/09 02:12:47;;;;;;;;;;;13.60;99.90;;;;;;4893165;29;19915;-57
2022/06/09 02:15:16;;;;;;;;;;;13.70;99.90;;;;;;4894273;29;19908;-57
2022/06/09 02:17:43;;;;;;;;;;;13.70;99.90;;;;;;4894148;29;19963;-58
2022/06/09 02:20:09;;;;;;;;;;;13.80;99.90;;;;;;4892030;29;19959;-57
2022/06/09 02:22:34;;;;;;;;;;;13.80;99.90;;;;;;4892113;29;19927;-57
2022/06/09 02:25:00;;;;;;;;;;;13.70;99.90;;;;;;4892561;29;19911;-57
2022/06/09 02:27:25;;;;;;;;;;;13.80;99.90;;;;;;4891207;29;19911;-57
2022/06/09 02:29:51;;;;;;;;;;;13.80;99.90;;;;;;4891922;29;20831;-57
2022/06/09 02:32:17;;;;;;;;;;;13.80;99.90;;;;;;4891152;29;19956;-57
2022/06/09 02:34:42;;;;;;;;;;;13.80;99.90;;;;;;4890145;29;19921;-56
2022/06/09 02:37:08;;;;;;;;;;;13.80;99.90;;;;;;4892101;29;19919;-57
2022/06/09 02:39:33;;;;;;;;;;;13.80;99.90;;;;;;4890645;29;19923;-57
2022/06/09 02:41:59;;;;;;;;;;;13.80;99.90;;;;;;4891452;29;19911;-57
2022/06/09 02:44:24;;;;;;;;;;;13.70;99.90;;;;;;4891289;29;19911;-57
2022/06/09 02:46:50;;;;;;;;;;;13.70;99.90;;;;;;4891371;29;19911;-57
2022/06/09 02:49:17;;;;;;;;;;;13.70;99.90;;;;;;4890931;29;19946;-57
2022/06/09 02:51:43;;;;;;;;;;;13.80;99.90;;;;;;4891614;29;19961;-57
2022/06/09 02:54:10;;;;;;;;;;;13.70;99.90;;;;;;4892544;29;20391;-57
2022/06/09 02:56:36;;;;;;;;;;;13.70;99.90;;;;;;4893248;29;20007;-57
2022/06/09 02:59:02;;;;;;;;;;;13.70;99.90;;;;;;4893224;29;20411;-57
2022/06/09 03:01:29;;;;;;;;;;;13.70;99.90;;;;;;4890767;29;20391;-57
2022/06/09 03:03:54;;;;;;;;;;;13.70;99.90;;;;;;4891666;29;20011;-57
2022/06/09 03:06:20;;;;;;;;;;;13.70;99.90;;;;;;4889550;29;20018;-57
2022/06/09 03:08:46;;;;;;;;;;;13.70;99.90;;;;;;4891507;29;19985;-57
2022/06/09 03:11:12;;;;;;;;;;;13.70;99.90;;;;;;4891112;29;19951;-57
2022/06/09 03:13:42;;;;;;;;;;;13.70;99.90;;;;;;4890438;29;19919;-57
2022/06/09 04:51:11;;;;;;;;;;;14.40;99.90;;;;;;5276982;23;19927;-55
2022/06/09 04:53:37;;;;;;;;;;;14.40;99.90;;;;;;4923616;29;19910;-55
2022/06/09 04:56:03;;;;;;;;;;;14.40;99.90;;;;;;4922934;29;19911;-55
2022/06/09 04:58:28;;;;;;;;;;;14.30;99.90;;;;;;4918284;29;20681;-56
2022/06/09 05:00:54;;;;;;;;;;;14.30;99.90;;;;;;4918820;29;19915;-55
2022/06/09 05:03:20;;;;;;;;;;;14.30;99.90;;;;;;4918591;29;19997;-55
2022/06/09 05:05:46;;;;;;;;;;;14.30;99.90;;;;;;4923568;29;19921;-55
2022/06/09 05:08:12;;;;;;;;;;;14.30;99.90;;;;;;4919878;29;20722;-55
2022/06/09 05:10:39;;;;;;;;;;;14.30;99.90;;;;;;4919190;29;19945;-55
2022/06/09 05:13:06;;;;;;;;;;;14.20;99.90;;;;;;4922874;29;19966;-55
2022/06/09 05:15:33;;;;;;;;;;;14.20;99.90;;;;;;4922026;29;20267;-58
2022/06/09 05:17:58;;;;;;;;;;;14.10;99.90;;;;;;4925581;29;19995;-58
2022/06/09 05:20:25;;;;;;;;;;;14.20;99.90;;;;;;4917747;29;20345;-58
2022/06/09 05:22:50;;;;;;;;;;;14.20;99.90;;;;;;4923158;29;20018;-58
2022/06/09 05:25:16;;;;;;;;;;;14.20;99.90;;;;;;4922424;29;20033;-58
2022/06/09 05:27:42;;;;;;;;;;;14.30;99.90;;;;;;4902175;29;19967;-58
2022/06/09 05:30:09;;;;;;;;;;;14.30;99.90;;;;;;4921194;29;19911;-58
2022/06/09 05:32:35;;;;;;;;;;;14.30;99.90;;;;;;4919594;29;19945;-59
2022/06/09 05:35:00;;;;;;;;;;;14.40;99.90;;;;;;4919506;29;19907;-58
2022/06/09 05:44:50;;;;;;;;;;;14.60;99.90;;;;;;4918331;29;19923;-58
2022/06/09 05:45:40;;;;;;;;;;;14.40;99.90;;;;;;4923115;29;20557;-58
2022/06/09 05:48:06;;;;;;;;;;;14.50;99.90;;;;;;4925974;29;19910;-58
2022/06/09 05:50:31;;;;;;;;;;;14.60;99.90;;;;;;4921042;29;20252;-58
2022/06/09 05:52:57;;;;;;;;;;;14.70;99.90;;;;;;4925482;29;20412;-58
2022/06/09 05:55:22;;;;;;;;;;;14.70;99.90;;;;;;4924080;29;19966;-58
2022/06/09 05:57:48;;;;;;;;;;;14.80;99.90;;;;;;4925136;29;20479;-58
2022/06/09 06:00:14;;;;;;;;;;;14.90;99.90;;;;;;4922279;29;19914;-58
2022/06/09 06:02:39;;;;;;;;;;;14.90;99.90;;;;;;4918251;29;20059;-55
2022/06/09 06:06:33;;;;;;;;;;;15.00;99.90;;;;;;4917340;29;20434;-55
2022/06/09 06:07:50;;;;;;;;;;;15.00;99.90;;;;;;4918362;29;19918;-56
2022/06/09 06:10:16;;;;;;;;;;;14.90;99.90;;;;;;4918345;29;19911;-58
2022/06/09 06:12:41;;;;;;;;;;;14.90;99.90;;;;;;4918664;29;20384;-59
2022/06/09 06:15:07;;;;;;;;;;;15.10;99.90;;;;;;4925386;29;19950;-55
2022/06/09 06:17:32;;;;;;;;;;;15.10;99.90;;;;;;4922243;29;19911;-56
2022/06/09 06:19:58;;;;;;;;;;;15.10;99.90;;;;;;4916413;29;19997;-55
2022/06/09 06:22:23;;;;;;;;;;;15.10;99.90;;;;;;4916231;29;19925;-56
2022/06/09 06:24:49;;;;;;;;;;;15.10;99.90;;;;;;4915394;29;19911;-55
2022/06/09 06:27:15;;;;;;;;;;;15.10;99.90;;;;;;4919261;29;19917;-58
2022/06/09 06:29:41;;;;;;;;;;;15.20;99.90;;;;;;4916479;29;19950;-58
2022/06/09 06:32:06;;;;;;;;;;;15.10;99.90;;;;;;4916796;29;19945;-56
2022/06/09 06:34:32;;;;;;;;;;;15.10;99.90;;;;;;4918000;29;19921;-55
2022/06/09 06:36:57;;;;;;;;;;;15.10;99.90;;;;;;4913482;29;20586;-56
2022/06/09 06:39:23;;;;;;;;;;;15.20;99.90;;;;;;4918459;29;19961;-58
2022/06/09 06:41:48;;;;;;;;;;;15.20;99.90;;;;;;4897621;29;19911;-58
2022/06/09 06:44:14;;;;;;;;;;;15.30;99.90;;;;;;4918407;29;20369;-58
2022/06/09 06:46:39;;;;;;;;;;;15.30;99.90;;;;;;4915795;29;19911;-58
2022/06/09 06:49:05;;;;;;;;;;;15.40;99.90;;;;;;4916795;29;19918;-58
2022/06/09 06:51:30;;;;;;;;;;;15.50;99.90;;;;;;4911186;29;19926;-55
2022/06/09 06:53:56;;;;;;;;;;;15.60;99.90;;;;;;4915937;29;19934;-56
2022/06/09 06:56:21;;;;;;;;;;;15.70;99.90;;;;;;4925083;29;20009;-58
2022/06/09 06:58:47;;;;;;;;;;;15.70;99.90;;;;;;4917033;29;19946;-58
2022/06/09 07:01:13;;;;;;;;;;;15.60;99.90;;;;;;4916027;29;20248;-57
2022/06/09 07:03:39;;;;;;;;;;;15.40;99.90;;;;;;4918032;29;19962;-55
2022/06/09 07:06:05;;;;;;;;;;;15.60;99.90;;;;;;4914058;29;19974;-55
2022/06/09 07:08:31;;;;;;;;;;;15.90;99.90;;;;;;4917463;29;19910;-56
2022/06/09 07:10:56;;;;;;;;;;;16.10;99.90;;;;;;4916179;29;20391;-56
2022/06/09 07:13:22;;;;;;;;;;;16.20;99.90;;;;;;4915537;29;20071;-55
2022/06/09 07:15:49;;;;;;;;;;;16.20;99.90;;;;;;4920292;29;19956;-58
2022/06/09 07:18:14;;;;;;;;;;;16.60;99.90;;;;;;4920430;29;19943;-58
2022/06/09 07:20:40;;;;;;;;;;;16.50;99.90;;;;;;4915496;29;20382;-58
2022/06/09 07:23:06;;;;;;;;;;;16.60;99.90;;;;;;4914891;29;19914;-58
2022/06/09 07:25:31;;;;;;;;;;;16.80;99.90;;;;;;4918474;29;19941;-58
2022/06/09 07:27:57;;;;;;;;;;;16.90;99.90;;;;;;4915911;29;20338;-58
2022/06/09 07:30:25;;;;;;;;;;;16.90;99.90;;;;;;4916316;29;19911;-58
2022/06/09 07:32:51;;;;;;;;;;;16.50;99.90;;;;;;4916088;29;20029;-57
2022/06/09 07:35:18;;;;;;;;;;;16.60;99.90;;;;;;4916811;29;20476;-58
2022/06/09 07:37:44;;;;;;;;;;;16.50;99.90;;;;;;4922182;29;20116;-58
2022/06/09 07:40:10;;;;;;;;;;;16.60;99.90;;;;;;4920331;29;19919;-55
2022/06/09 07:42:36;;;;;;;;;;;16.40;99.90;;;;;;4922279;29;19915;-56
2022/06/09 07:45:01;;;;;;;;;;;16.30;99.90;;;;;;4924585;29;19957;-56
2022/06/09 07:47:27;;;;;;;;;;;16.40;99.90;;;;;;4920500;29;19911;-55
2022/06/09 07:49:52;;;;;;;;;;;16.30;99.90;;;;;;4904455;29;20590;-56
2022/06/09 07:52:18;;;;;;;;;;;16.10;99.90;;;;;;4916809;29;20540;-56
2022/06/09 07:54:44;;;;;;;;;;;16.10;99.90;;;;;;4923016;29;19939;-56
2022/06/09 07:57:11;;;;;;;;;;;15.90;99.90;;;;;;4921870;29;20715;-56
2022/06/09 07:59:37;;;;;;;;;;;15.90;99.90;;;;;;4923692;29;19911;-56
2022/06/09 08:02:03;;;;;;;;;;;16.00;99.90;;;;;;4915896;29;20001;-57
2022/06/09 08:04:28;;;;;;;;;;;16.00;99.90;;;;;;4914702;29;20645;-56
2022/06/09 08:06:54;;;;;;;;;;;16.00;99.90;;;;;;4916398;29;19965;-56
2022/06/09 08:09:19;;;;;;;;;;;16.10;99.90;;;;;;4916370;29;19911;-56
2022/06/09 08:11:46;;;;;;;;;;;16.10;99.90;;;;;;4915631;29;19918;-56
2022/06/09 08:14:12;;;;;;;;;;;16.10;99.90;;;;;;4918839;29;19918;-56
2022/06/09 08:16:38;;;;;;;;;;;15.80;99.90;;;;;;4918327;29;20291;-56
2022/06/09 08:19:04;;;;;;;;;;;15.50;99.90;;;;;;4918924;29;20405;-56
2022/06/09 08:21:29;;;;;;;;;;;15.40;99.90;;;;;;4912540;29;20002;-56
2022/06/09 08:23:55;;;;;;;;;;;15.60;99.90;;;;;;4918479;29;19917;-56
2022/06/09 08:26:21;;;;;;;;;;;15.80;99.90;;;;;;4917582;29;19919;-56
2022/06/09 08:28:46;;;;;;;;;;;15.60;99.90;;;;;;4915593;29;20386;-56
2022/06/09 08:31:12;;;;;;;;;;;15.70;99.90;;;;;;4918087;29;20366;-56
2022/06/09 08:33:38;;;;;;;;;;;16.10;99.90;;;;;;4913834;29;19911;-56
2022/06/09 08:36:04;;;;;;;;;;;16.50;99.90;;;;;;4918218;29;19911;-56
2022/06/09 08:38:30;;;;;;;;;;;;;;;;;;4915959;29;20399;-56
2022/06/09 08:41:17;;;;;;;;;;;18.10;99.90;;;;;;4921737;29;19939;-56
2022/06/09 08:43:43;;;;;;;;;;;18.50;99.90;;;;;;4919496;29;19922;-56
2022/06/09 08:46:27;;;;;;;;;;;18.10;99.90;;;;;;4921102;29;20355;-56
2022/06/09 08:48:54;;;;;;;;;;;18.10;99.90;;;;;;4917043;29;20286;-56
2022/06/09 08:51:24;;;;;;;;;;;18.40;99.90;;;;;;4916296;29;19927;-56
2022/06/09 08:53:53;;;;;;;;;;;18.20;99.90;;;;;;4916961;29;19911;-56
2022/06/09 08:56:22;;;;;;;;;;;18.50;99.90;;;;;;4924242;29;19926;-56
2022/06/09 08:58:51;;;;;;;;;;;19.00;99.90;;;;;;4923302;29;19907;-56
2022/06/09 09:01:24;;;;;;;;;;;19.10;99.90;;;;;;4919176;29;20321;-56
2022/06/09 09:03:56;;;;;;;;;;;19.00;99.90;;;;;;4920879;29;19921;-56
2022/06/09 09:06:38;;;;;;;;;;;19.30;99.90;;;;;;4918124;29;20338;-56
2022/06/09 09:09:24;;;;;;;;;;;19.50;99.90;;;;;;4921436;29;19911;-57
2022/06/09 09:11:50;;;;;;;;;;;20.20;99.90;;;;;;4920664;29;20069;-56
2022/06/09 09:14:19;;;;;;;;;;;20.50;99.90;;;;;;4920284;29;20344;-56
2022/06/09 09:16:57;;;;;;;;;;;20.00;99.90;;;;;;4919911;29;20299;-56
2022/06/09 09:19:42;;;;;;;;;;;19.60;99.90;;;;;;4919011;29;19954;-56
2022/06/09 09:22:07;;;;;;;;;;;19.40;99.90;;;;;;4915456;29;19919;-56
2022/06/09 09:24:38;;;;;;;;;;;19.30;99.90;;;;;;4920551;29;20437;-55
2022/06/09 09:27:11;;;;;;;;;;;19.10;99.90;;;;;;4918741;29;20350;-56
2022/06/09 09:29:43;;;;;;;;;;;19.40;99.90;;;;;;4920215;29;19910;-55
2022/06/09 09:32:12;;;;;;;;;;;19.50;99.90;;;;;;4917277;29;19991;-56
2022/06/09 09:34:43;;;;;;;;;;;20.10;99.90;;;;;;4918867;29;19911;-56
2022/06/09 09:37:32;;;;;;;;;;;20.30;99.90;;;;;;4920484;29;19910;-57
2022/06/09 09:39:59;;;;;;;;;;;21.00;99.90;;;;;;4913890;29;19922;-56
2022/06/09 09:42:31;;;;;;;;;;;21.20;99.90;;;;;;4901672;29;19915;-56
2022/06/09 09:45:09;;;;;;;;;;;22.00;99.90;;;;;;4920210;29;19926;-56
2022/06/09 09:47:43;;;;;;;;;;;22.60;99.90;;;;;;4918696;29;19921;-57
2022/06/09 09:50:29;;;;;;;;;;;22.60;99.90;;;;;;4918952;29;19915;-56
2022/06/09 09:52:58;;;;;;;;;;;22.60;99.90;;;;;;4914117;29;19937;-57
2022/06/09 09:55:32;;;;;;;;;;;22.50;99.90;;;;;;4916113;29;20343;-56
2022/06/09 09:58:18;;;;;;;;;;;22.50;99.90;;;;;;4919241;29;20001;-56
2022/06/09 10:00:43;;;;;;;;;;;23.00;99.90;;;;;;4914902;29;20430;-57
2022/06/09 10:08:53;;;;;;;;;;;24.10;99.40;;;;;;4916699;29;19965;-56
2022/06/09 10:11:53;;;;;;;;;;;23.10;99.90;;;;;;4918248;29;19917;-56
2022/06/09 10:14:37;;;;;;;;;;;22.60;99.90;;;;;;4922426;29;19910;-57
2022/06/09 10:17:05;;;;;;;;;;;22.30;99.90;;;;;;4923603;29;20001;-56
2022/06/09 10:19:32;;;;;;;;;;;21.90;99.90;;;;;;4919742;29;19907;-56
2022/06/09 10:22:03;;;;;;;;;;;22.00;99.90;;;;;;4916010;29;20366;-57
2022/06/09 10:24:35;;;;;;;;;;;23.40;99.90;;;;;;4917712;29;20410;-57
2022/06/09 10:27:01;;;;;;;;;;;25.10;99.90;;;;;;4912393;29;19915;-57
2022/06/09 10:29:27;;;;;;;;;;;23.70;99.80;;;;;;4919006;29;20354;-57
2022/06/09 10:32:04;;;;;;;;;;;23.70;99.90;;;;;;4916559;29;19918;-56
2022/06/09 10:34:34;;;;;;;;;;;23.20;99.90;;;;;;4920077;29;20045;-56
2022/06/09 10:36:59;;;;;;;;;;;22.50;99.90;;;;;;4914849;29;19910;-57
2022/06/09 10:39:31;;;;;;;;;;;23.50;99.90;;;;;;4918505;29;19918;-57
2022/06/09 10:42:04;;;;;;;;;;;24.40;99.90;;;;;;4913741;29;19911;-56
2022/06/09 10:44:33;;;;;;;;;;;25.00;97.10;;;;;;4919818;29;19914;-56
2022/06/09 10:55:30;;;;;;;;;;;21.80;99.90;;;;;;4917333;29;20444;-56
2022/06/09 10:58:15;;;;;;;;;;;21.50;99.90;;;;;;4915440;29;20282;-56
2022/06/09 11:00:48;;;;;;;;;;;22.70;99.90;;;;;;4918038;29;19910;-57
2022/06/09 11:03:15;;;;;;;;;;;24.30;99.90;;;;;;4916033;29;19923;-57
2022/06/09 11:05:56;;;;;;;;;;;25.00;97.50;;;;;;4917616;29;20632;-57
2022/06/09 11:08:40;;;;;;;;;;;26.00;97.40;;;;;;4919301;29;20292;-56
2022/06/09 11:11:20;;;;;;;;;;;24.80;97.70;;;;;;4918895;29;19970;-56
2022/06/09 11:13:52;;;;;;;;;;;21.40;99.90;;;;;;4918964;29;20419;-56
2022/06/09 11:16:21;;;;;;;;;;;18.90;99.90;;;;;;4919235;29;20291;-57
2022/06/09 11:19:05;;;;;;;;;;;17.30;99.90;;;;;;4914175;29;20009;-56
2022/06/09 11:21:31;;;;;;;;;;;16.80;99.90;;;;;;4914457;29;20001;-56
2022/06/09 11:24:05;;;;;;;;;;;16.70;99.90;;;;;;4915520;29;20147;-56
2022/06/09 11:26:37;;;;;;;;;;;16.90;99.90;;;;;;4916205;29;20144;-57
2022/06/09 11:29:08;;;;;;;;;;;16.80;99.90;;;;;;4918825;29;20005;-58
2022/06/09 11:31:33;;;;;;;;;;;16.90;99.90;;;;;;4919709;29;19917;-58
2022/06/09 11:34:02;;;;;;;;;;;17.00;99.90;;;;;;4923394;29;20005;-57
2022/06/09 11:36:40;;;;;;;;;;;16.90;99.90;;;;;;4923769;29;19966;-57
2022/06/09 11:39:23;;;;;;;;;;;17.40;99.90;;;;;;4920914;29;19913;-57
2022/06/09 11:42:01;;;;;;;;;;;17.40;99.90;;;;;;4925592;29;20267;-57
2022/06/09 11:44:35;;;;;;;;;;;17.30;99.90;;;;;;4921677;29;19914;-57
2022/06/09 11:47:03;;;;;;;;;;;17.60;99.90;;;;;;4920650;29;20007;-57
2022/06/09 11:49:42;;;;;;;;;;;17.60;99.90;;;;;;4924647;29;19907;-57
2022/06/09 11:52:09;;;;;;;;;;;18.00;99.90;;;;;;4913914;29;20601;-57
2022/06/09 11:54:43;;;;;;;;;;;18.30;99.90;;;;;;4928450;29;19915;-57
2022/06/09 11:57:21;;;;;;;;;;;18.50;99.90;;;;;;4923934;29;20232;-57
2022/06/09 12:00:05;;;;;;;;;;;18.80;99.90;;;;;;4918017;29;19924;-57
2022/06/09 12:02:44;;;;;;;;;;;19.00;99.90;;;;;;4914442;29;19941;-57
2022/06/09 12:05:10;;;;;;;;;;;19.50;99.90;;;;;;4920249;29;19922;-58
2022/06/09 12:07:41;;;;;;;;;;;19.50;99.90;;;;;;4919629;29;19911;-58
2022/06/09 12:10:07;;;;;;;;;;;18.80;99.90;;;;;;4924632;29;19967;-57
2022/06/09 12:12:35;;;;;;;;;;;18.20;99.90;;;;;;4919976;29;20365;-57
2022/06/09 12:15:06;;;;;;;;;;;17.80;99.90;;;;;;4926765;29;19911;-56
2022/06/09 12:17:33;;;;;;;;;;;17.40;99.90;;;;;;4928556;29;19906;-57
2022/06/09 12:19:59;;;;;;;;;;;17.10;99.90;;;;;;4922165;29;19915;-56
2022/06/09 12:22:40;;;;;;;;;;;17.40;99.90;;;;;;4924175;29;20482;-56
2022/06/09 12:25:10;;;;;;;;;;;17.30;99.90;;;;;;4922809;29;19911;-56
2022/06/09 12:27:40;;;;;;;;;;;17.60;99.90;;;;;;4926836;29;20373;-56
2022/06/09 12:30:19;;;;;;;;;;;17.90;99.90;;;;;;4924179;29;19918;-56
2022/06/09 12:33:04;;;;;;;;;;;18.10;99.90;;;;;;4925200;29;19915;-56
2022/06/09 12:35:34;;;;;;;;;;;18.20;99.90;;;;;;4924493;29;19911;-57
2022/06/09 12:38:32;;;;;;;;;;;18.00;99.90;;;;;;4922317;29;19969;-57
2022/06/09 12:40:59;;;;;;;;;;;18.00;99.90;;;;;;4893968;29;19911;-57
2022/06/09 12:43:34;;;;;;;;;;;18.00;99.90;;;;;;4923361;29;19919;-57
2022/06/09 12:46:01;;;;;;;;;;;18.30;99.90;;;;;;4924074;29;19922;-56
2022/06/09 12:48:28;;;;;;;;;;;18.20;99.90;;;;;;4926016;29;20006;-56
2022/06/09 12:50:53;;;;;;;;;;;18.20;99.90;;;;;;4920334;29;19941;-56
2022/06/09 12:53:21;;;;;;;;;;;17.90;99.90;;;;;;4910300;29;20430;-56
2022/06/09 12:55:52;;;;;;;;;;;17.30;99.90;;;;;;4922965;29;19914;-56
2022/06/09 12:58:20;;;;;;;;;;;16.80;99.90;;;;;;4927930;29;19974;-56
2022/06/09 13:00:48;;;;;;;;;;;16.50;99.90;;;;;;4927454;29;20037;-56
2022/06/09 13:03:22;;;;;;;;;;;16.00;99.90;;;;;;4923495;29;19914;-56
2022/06/09 13:05:47;;;;;;;;;;;15.40;99.90;;;;;;4925490;29;19954;-56
2022/06/09 13:08:16;;;;;;;;;;;15.20;99.90;;;;;;4926762;29;19965;-56
2022/06/09 13:10:43;;;;;;;;;;;15.00;99.90;;;;;;4931588;29;19913;-57
2022/06/09 13:13:20;;;;;;;;;;;14.80;99.90;;;;;;4926067;29;19910;-57
2022/06/09 13:15:57;;;;;;;;;;;14.80;99.90;;;;;;4923177;29;19910;-56
2022/06/09 13:18:43;;;;;;;;;;;14.90;99.90;;;;;;4925120;29;19989;-58
2022/06/09 13:21:13;;;;;;;;;;;15.00;99.90;;;;;;4923874;29;20029;-56
2022/06/09 13:23:39;;;;;;;;;;;15.10;99.90;;;;;;4922420;29;19914;-57
2022/06/09 13:26:06;;;;;;;;;;;15.30;99.90;;;;;;4924796;29;19914;-56
2022/06/09 13:28:31;;;;;;;;;;;15.30;99.90;;;;;;4922473;29;19989;-56
2022/06/09 13:30:58;;;;;;;;;;;15.50;99.90;;;;;;4922238;29;20279;-56
2022/06/09 13:33:29;;;;;;;;;;;15.80;99.90;;;;;;4925866;29;19915;-56
2022/06/09 13:36:27;;;;;;;;;;;16.20;99.90;;;;;;4921974;29;19958;-56
2022/06/09 13:38:53;;;;;;;;;;;16.70;99.90;;;;;;4903729;29;20339;-56
2022/06/09 13:41:18;;;;;;;;;;;17.10;99.90;;;;;;4925624;29;19906;-56
2022/06/09 13:43:46;;;;;;;;;;;17.30;99.90;;;;;;4925308;29;19918;-56
2022/06/09 13:46:24;;;;;;;;;;;17.40;99.90;;;;;;4923374;29;19918;-56
2022/06/09 13:48:52;;;;;;;;;;;17.50;99.90;;;;;;4922911;29;19915;-56
2022/06/09 13:51:22;;;;;;;;;;;17.30;99.90;;;;;;4924004;29;19927;-56
2022/06/09 13:53:50;;;;;;;;;;;;;;;;;;4921921;29;20645;-56
2022/06/09 13:56:16;;;;;;;;;;;16.90;99.90;;;;;;4924009;29;20307;-56
2022/06/09 13:58:42;;;;;;;;;;;17.00;99.90;;;;;;4922769;29;19970;-56
2022/06/09 14:01:07;;;;;;;;;;;16.90;99.90;;;;;;4899473;29;19911;-57
2022/06/09 14:03:34;;;;;;;;;;;17.00;99.90;;;;;;4916261;29;20354;-56
2022/06/09 14:06:04;;;;;;;;;;;16.90;99.90;;;;;;4925570;29;20268;-56
2022/06/09 14:08:33;;;;;;;;;;;16.90;99.90;;;;;;4924251;29;20753;-56
2022/06/09 14:10:59;;;;;;;;;;;16.70;99.90;;;;;;4925358;29;19911;-57
2022/06/09 14:13:24;;;;;;;;;;;16.60;99.90;;;;;;4924846;29;20337;-56
2022/06/09 14:15:51;;;;;;;;;;;16.70;99.90;;;;;;4925436;29;19954;-56
2022/06/09 14:18:18;;;;;;;;;;;16.80;99.90;;;;;;4930906;29;19919;-56
2022/06/09 14:20:44;;;;;;;;;;;16.80;99.90;;;;;;4922804;29;19931;-56
2022/06/09 14:23:15;;;;;;;;;;;16.90;99.90;;;;;;4921229;29;20253;-56
2022/06/09 14:25:41;;;;;;;;;;;17.20;99.90;;;;;;4925574;29;19910;-56
2022/06/09 14:28:08;;;;;;;;;;;17.60;99.90;;;;;;4922327;29;19958;-56
2022/06/09 14:30:33;;;;;;;;;;;17.70;99.90;;;;;;4922988;29;20387;-56
2022/06/09 14:32:59;;;;;;;;;;;17.90;99.90;;;;;;4925021;29;19991;-56
2022/06/09 14:35:24;;;;;;;;;;;17.90;99.90;;;;;;4922233;29;19915;-56
2022/06/09 14:37:50;;;;;;;;;;;18.00;99.90;;;;;;4922440;29;19911;-56
2022/06/09 14:40:21;;;;;;;;;;;18.30;99.90;;;;;;4921868;29;20016;-56
2022/06/09 14:42:47;;;;;;;;;;;18.70;99.90;;;;;;4915368;29;19978;-56
2022/06/09 14:45:12;;;;;;;;;;;18.80;99.90;;;;;;4923954;29;19914;-57
2022/06/09 14:47:38;;;;;;;;;;;19.30;99.90;;;;;;4922513;29;19942;-56
2022/06/09 14:50:03;;;;;;;;;;;19.30;99.90;;;;;;4922296;29;19919;-56
2022/06/09 14:52:29;;;;;;;;;;;19.40;99.90;;;;;;4919454;29;19942;-56
2022/06/09 14:54:54;;;;;;;;;;;19.50;99.90;;;;;;4921041;29;20279;-56
2022/06/09 14:57:20;;;;;;;;;;;19.50;99.90;;;;;;4924208;29;19914;-56
2022/06/09 14:59:46;;;;;;;;;;;19.50;99.90;;;;;;4917887;29;19986;-57
2022/06/09 15:02:15;;;;;;;;;;;19.70;99.90;;;;;;4922274;29;20298;-56
2022/06/09 15:04:41;;;;;;;;;;;19.80;99.90;;;;;;4919066;29;19990;-56
2022/06/09 15:07:07;;;;;;;;;;;19.90;99.90;;;;;;4919937;29;19911;-56
2022/06/09 15:09:33;;;;;;;;;;;20.30;99.90;;;;;;4915989;29;19918;-56
2022/06/09 15:11:58;;;;;;;;;;;22.00;99.90;;;;;;4919657;29;19911;-56
2022/06/09 15:14:24;;;;;;;;;;;22.10;99.90;;;;;;4921875;29;20410;-56
2022/06/09 15:16:49;;;;;;;;;;;23.00;99.90;;;;;;4918983;29;20285;-57
2022/06/09 15:19:15;;;;;;;;;;;24.30;99.90;;;;;;4920060;29;19916;-56
2022/06/09 15:21:42;;;;;;;;;;;23.70;99.90;;;;;;4911770;29;19922;-56
2022/06/09 15:24:08;;;;;;;;;;;23.70;99.90;;;;;;4918603;29;20294;-56
2022/06/09 15:26:34;;;;;;;;;;;24.70;99.90;;;;;;4916145;29;19935;-56
2022/06/09 15:29:01;;;;;;;;;;;23.70;99.90;;;;;;4923092;29;19910;-57
2022/06/09 15:31:26;;;;;;;;;;;22.30;99.90;;;;;;4921479;29;20256;-56
2022/06/09 15:33:52;;;;;;;;;;;20.80;99.90;;;;;;4921844;29;20014;-56
2022/06/09 15:36:19;;;;;;;;;;;19.30;99.90;;;;;;4921008;29;19911;-56
2022/06/09 15:38:45;;;;;;;;;;;18.90;99.90;;;;;;4923231;29;19915;-56
2022/06/09 15:41:10;;;;;;;;;;;19.60;99.90;;;;;;4922764;29;19913;-56
2022/06/09 15:43:36;;;;;;;;;;;21.30;99.90;;;;;;4924097;29;19945;-56
2022/06/09 15:46:01;;;;;;;;;;;22.90;99.90;;;;;;4926194;29;19911;-56
2022/06/09 15:48:28;;;;;;;;;;;22.20;99.90;;;;;;4924137;29;19911;-56
2022/06/09 15:50:54;;;;;;;;;;;23.00;99.90;;;;;;4925777;29;20438;-55
2022/06/09 15:53:20;;;;;;;;;;;23.10;99.90;;;;;;4913012;29;20291;-56
2022/06/09 15:55:48;;;;;;;;;;;23.70;99.90;;;;;;4927322;29;19931;-56
2022/06/09 15:58:14;;;;;;;;;;;23.50;99.90;;;;;;4914225;29;19913;-57
2022/06/09 16:00:40;;;;;;;;;;;24.00;99.90;;;;;;4921464;29;19985;-56
2022/06/09 16:03:06;;;;;;;;;;;24.50;99.90;;;;;;4917259;29;20370;-56
2022/06/09 16:05:32;;;;;;;;;;;24.50;99.90;;;;;;4921815;29;19910;-56
2022/06/09 16:07:58;;;;;;;;;;;23.60;99.90;;;;;;4918555;29;19911;-56
2022/06/09 16:10:25;;;;;;;;;;;23.30;99.90;;;;;;4922374;29;19997;-56
2022/06/09 16:12:51;;;;;;;;;;;22.90;99.90;;;;;;4923840;29;19919;-56
2022/06/09 16:15:17;;;;;;;;;;;22.80;99.90;;;;;;4919795;29;19992;-56
2022/06/09 16:17:43;;;;;;;;;;;22.10;99.90;;;;;;4920705;29;20363;-56
2022/06/09 16:20:10;;;;;;;;;;;21.40;99.90;;;;;;4918294;29;19919;-56
2022/06/09 16:22:36;;;;;;;;;;;20.80;99.90;;;;;;4922465;29;19915;-57